sensor_id;sensor_type;location;lat;lon;timestamp;temperature;humidity
33105;DHT22;19476;51.448;6.674;2022-12-29T00:01:41;15.30;61.70
33105;DHT22;19476;51.448;6.674;2022-12-29T00:04:07;15.30;61.80
33105;DHT22;19476;51.448;6.674;2022-12-29T00:06:32;15.30;62.10
33105;DHT22;19476;51.448;6.674;2022-12-29T00:08:58;15.30;62.50
33105;DHT22;19476;51.448;6.674;2022-12-29T00:11:26;15.30;62.80
33105;DHT22;19476;51.448;6.674;2022-12-29T00:13:52;15.30;62.90
33105;DHT22;19476;51.448;6.674;2022-12-29T00:16:37;15.20;63.10
33105;DHT22;19476;51.448;6.674;2022-12-29T00:19:05;15.20;63.20
33105;DHT22;19476;51.448;6.674;2022-12-29T00:21:31;15.20;63.20
33105;DHT22;19476;51.448;6.674;2022-12-29T00:24:19;15.20;63.30
33105;DHT22;19476;51.448;6.674;2022-12-29T00:29:49;15.10;64.10
33105;DHT22;19476;51.448;6.674;2022-12-29T00:32:34;15.10;63.80
33105;DHT22;19476;51.448;6.674;2022-12-29T00:35:30;15.10;63.70
33105;DHT22;19476;51.448;6.674;2022-12-29T00:38:03;15.10;63.90
33105;DHT22;19476;51.448;6.674;2022-12-29T00:40:49;15.10;63.90
33105;DHT22;19476;51.448;6.674;2022-12-29T00:43:34;15.10;63.80
33105;DHT22;19476;51.448;6.674;2022-12-29T00:46:18;15.10;63.80
33105;DHT22;19476;51.448;6.674;2022-12-29T00:48:44;15.10;64.30
33105;DHT22;19476;51.448;6.674;2022-12-29T00:51:28;15.10;64.40
33105;DHT22;19476;51.448;6.674;2022-12-29T00:53:54;15.10;64.60
33105;DHT22;19476;51.448;6.674;2022-12-29T00:56:20;15.10;64.60
33105;DHT22;19476;51.448;6.674;2022-12-29T00:58:46;15.10;64.90
33105;DHT22;19476;51.448;6.674;2022-12-29T01:01:11;15.00;64.90
33105;DHT22;19476;51.448;6.674;2022-12-29T01:03:38;15.10;65.00
33105;DHT22;19476;51.448;6.674;2022-12-29T01:06:07;15.10;65.30
33105;DHT22;19476;51.448;6.674;2022-12-29T01:08:33;15.10;65.40
33105;DHT22;19476;51.448;6.674;2022-12-29T01:11:03;15.10;65.30
33105;DHT22;19476;51.448;6.674;2022-12-29T01:13:30;15.00;65.10
33105;DHT22;19476;51.448;6.674;2022-12-29T01:15:56;15.00;65.00
33105;DHT22;19476;51.448;6.674;2022-12-29T01:18:23;15.00;64.80
33105;DHT22;19476;51.448;6.674;2022-12-29T01:20:49;15.00;64.60
33105;DHT22;19476;51.448;6.674;2022-12-29T01:23:16;15.00;64.50
33105;DHT22;19476;51.448;6.674;2022-12-29T01:25:42;15.10;64.30
33105;DHT22;19476;51.448;6.674;2022-12-29T01:28:07;15.00;63.90
33105;DHT22;19476;51.448;6.674;2022-12-29T01:30:36;15.10;63.90
33105;DHT22;19476;51.448;6.674;2022-12-29T01:33:02;15.10;63.50
33105;DHT22;19476;51.448;6.674;2022-12-29T01:35:28;15.10;63.30
33105;DHT22;19476;51.448;6.674;2022-12-29T01:37:54;15.10;63.20
33105;DHT22;19476;51.448;6.674;2022-12-29T01:40:20;15.20;63.10
33105;DHT22;19476;51.448;6.674;2022-12-29T01:42:46;15.20;62.90
33105;DHT22;19476;51.448;6.674;2022-12-29T01:45:14;15.20;62.80
33105;DHT22;19476;51.448;6.674;2022-12-29T01:47:47;15.20;62.50
33105;DHT22;19476;51.448;6.674;2022-12-29T01:52:59;15.30;62.10
33105;DHT22;19476;51.448;6.674;2022-12-29T01:55:30;15.30;61.90
33105;DHT22;19476;51.448;6.674;2022-12-29T01:57:59;15.30;61.70
33105;DHT22;19476;51.448;6.674;2022-12-29T02:00:26;15.30;61.40
33105;DHT22;19476;51.448;6.674;2022-12-29T02:02:53;15.30;61.20
33105;DHT22;19476;51.448;6.674;2022-12-29T02:05:51;15.40;61.30
33105;DHT22;19476;51.448;6.674;2022-12-29T02:08:20;15.40;60.90
33105;DHT22;19476;51.448;6.674;2022-12-29T02:10:47;15.40;60.80
33105;DHT22;19476;51.448;6.674;2022-12-29T02:13:17;15.40;60.50
33105;DHT22;19476;51.448;6.674;2022-12-29T02:16:14;15.40;60.10
33105;DHT22;19476;51.448;6.674;2022-12-29T02:29:42;15.50;59.60
33105;DHT22;19476;51.448;6.674;2022-12-29T02:35:27;15.50;59.30
33105;DHT22;19476;51.448;6.674;2022-12-29T02:40:43;15.50;59.40
33105;DHT22;19476;51.448;6.674;2022-12-29T02:43:41;15.50;59.00
33105;DHT22;19476;51.448;6.674;2022-12-29T02:51:55;15.50;58.80
33105;DHT22;19476;51.448;6.674;2022-12-29T02:54:20;15.50;58.60
33105;DHT22;19476;51.448;6.674;2022-12-29T02:59:52;15.50;58.30
33105;DHT22;19476;51.448;6.674;2022-12-29T03:02:29;15.60;58.50
33105;DHT22;19476;51.448;6.674;2022-12-29T03:05:12;15.50;58.50
33105;DHT22;19476;51.448;6.674;2022-12-29T03:08:02;15.60;58.40
33105;DHT22;19476;51.448;6.674;2022-12-29T03:16:23;15.60;58.80
33105;DHT22;19476;51.448;6.674;2022-12-29T03:19:04;15.60;58.80
33105;DHT22;19476;51.448;6.674;2022-12-29T03:22:00;15.60;58.30
33105;DHT22;19476;51.448;6.674;2022-12-29T03:24:49;15.60;58.40
33105;DHT22;19476;51.448;6.674;2022-12-29T03:27:23;15.60;58.50
33105;DHT22;19476;51.448;6.674;2022-12-29T03:29:55;15.60;58.40
33105;DHT22;19476;51.448;6.674;2022-12-29T03:32:31;15.60;58.50
33105;DHT22;19476;51.448;6.674;2022-12-29T03:34:58;15.60;58.30
33105;DHT22;19476;51.448;6.674;2022-12-29T03:37:29;15.60;58.30
33105;DHT22;19476;51.448;6.674;2022-12-29T03:39:56;15.60;58.20
33105;DHT22;19476;51.448;6.674;2022-12-29T03:42:25;15.60;58.40
33105;DHT22;19476;51.448;6.674;2022-12-29T03:44:54;15.60;58.40
33105;DHT22;19476;51.448;6.674;2022-12-29T03:47:22;15.60;58.60
33105;DHT22;19476;51.448;6.674;2022-12-29T03:49:48;15.60;59.10
33105;DHT22;19476;51.448;6.674;2022-12-29T03:52:14;15.60;59.10
33105;DHT22;19476;51.448;6.674;2022-12-29T03:54:40;15.60;59.10
33105;DHT22;19476;51.448;6.674;2022-12-29T03:57:06;15.60;59.20
33105;DHT22;19476;51.448;6.674;2022-12-29T03:59:31;15.60;59.10
33105;DHT22;19476;51.448;6.674;2022-12-29T04:01:57;15.60;59.10
33105;DHT22;19476;51.448;6.674;2022-12-29T04:04:23;15.60;59.30
33105;DHT22;19476;51.448;6.674;2022-12-29T04:06:49;15.60;59.60
33105;DHT22;19476;51.448;6.674;2022-12-29T04:09:14;15.60;59.70
33105;DHT22;19476;51.448;6.674;2022-12-29T04:11:40;15.60;59.90
33105;DHT22;19476;51.448;6.674;2022-12-29T04:14:06;15.50;59.90
33105;DHT22;19476;51.448;6.674;2022-12-29T04:16:31;15.50;60.00
33105;DHT22;19476;51.448;6.674;2022-12-29T04:19:01;15.60;60.00
33105;DHT22;19476;51.448;6.674;2022-12-29T04:21:27;15.60;60.00
33105;DHT22;19476;51.448;6.674;2022-12-29T04:23:53;15.50;59.90
33105;DHT22;19476;51.448;6.674;2022-12-29T04:26:19;15.50;59.80
33105;DHT22;19476;51.448;6.674;2022-12-29T04:28:44;15.50;59.80
33105;DHT22;19476;51.448;6.674;2022-12-29T04:31:11;15.50;59.70
33105;DHT22;19476;51.448;6.674;2022-12-29T04:33:36;15.50;59.60
33105;DHT22;19476;51.448;6.674;2022-12-29T04:36:02;15.50;59.50
33105;DHT22;19476;51.448;6.674;2022-12-29T04:38:28;15.50;59.30
33105;DHT22;19476;51.448;6.674;2022-12-29T04:40:54;15.50;59.20
33105;DHT22;19476;51.448;6.674;2022-12-29T04:43:20;15.50;59.20
33105;DHT22;19476;51.448;6.674;2022-12-29T04:45:47;15.50;59.20
33105;DHT22;19476;51.448;6.674;2022-12-29T04:48:13;15.50;59.00
33105;DHT22;19476;51.448;6.674;2022-12-29T04:50:40;15.50;59.00
33105;DHT22;19476;51.448;6.674;2022-12-29T04:53:06;15.50;58.80
33105;DHT22;19476;51.448;6.674;2022-12-29T04:55:33;15.60;58.60
33105;DHT22;19476;51.448;6.674;2022-12-29T04:57:59;15.60;58.20
33105;DHT22;19476;51.448;6.674;2022-12-29T05:00:25;15.60;58.00
33105;DHT22;19476;51.448;6.674;2022-12-29T05:02:51;15.60;57.70
33105;DHT22;19476;51.448;6.674;2022-12-29T05:05:17;15.60;57.90
33105;DHT22;19476;51.448;6.674;2022-12-29T05:07:43;15.60;57.80
33105;DHT22;19476;51.448;6.674;2022-12-29T05:10:09;15.60;57.80
33105;DHT22;19476;51.448;6.674;2022-12-29T05:12:36;15.70;57.70
33105;DHT22;19476;51.448;6.674;2022-12-29T05:15:04;15.70;57.60
33105;DHT22;19476;51.448;6.674;2022-12-29T05:17:30;15.80;58.00
33105;DHT22;19476;51.448;6.674;2022-12-29T05:19:56;15.70;58.40
33105;DHT22;19476;51.448;6.674;2022-12-29T05:22:22;15.70;58.60
33105;DHT22;19476;51.448;6.674;2022-12-29T05:24:48;15.60;58.70
33105;DHT22;19476;51.448;6.674;2022-12-29T05:27:13;15.60;58.80
33105;DHT22;19476;51.448;6.674;2022-12-29T05:29:39;15.60;58.90
33105;DHT22;19476;51.448;6.674;2022-12-29T05:32:05;15.50;58.80
33105;DHT22;19476;51.448;6.674;2022-12-29T05:34:31;15.50;58.80
33105;DHT22;19476;51.448;6.674;2022-12-29T05:36:57;15.50;58.80
33105;DHT22;19476;51.448;6.674;2022-12-29T05:39:23;15.40;58.50
33105;DHT22;19476;51.448;6.674;2022-12-29T05:41:48;15.40;58.10
33105;DHT22;19476;51.448;6.674;2022-12-29T05:44:15;15.40;57.60
33105;DHT22;19476;51.448;6.674;2022-12-29T05:46:40;15.40;56.30
33105;DHT22;19476;51.448;6.674;2022-12-29T05:49:06;15.40;56.00
33105;DHT22;19476;51.448;6.674;2022-12-29T05:51:32;15.40;56.00
33105;DHT22;19476;51.448;6.674;2022-12-29T05:53:58;15.40;56.00
33105;DHT22;19476;51.448;6.674;2022-12-29T05:56:24;15.40;55.90
33105;DHT22;19476;51.448;6.674;2022-12-29T05:58:50;15.30;56.00
33105;DHT22;19476;51.448;6.674;2022-12-29T06:01:15;15.30;56.20
33105;DHT22;19476;51.448;6.674;2022-12-29T06:03:41;15.30;56.30
33105;DHT22;19476;51.448;6.674;2022-12-29T06:06:07;15.30;56.40
33105;DHT22;19476;51.448;6.674;2022-12-29T06:08:33;15.30;56.50
33105;DHT22;19476;51.448;6.674;2022-12-29T06:10:59;15.30;56.50
33105;DHT22;19476;51.448;6.674;2022-12-29T06:13:25;15.20;56.60
33105;DHT22;19476;51.448;6.674;2022-12-29T06:15:51;15.20;56.80
33105;DHT22;19476;51.448;6.674;2022-12-29T06:18:17;15.20;56.90
33105;DHT22;19476;51.448;6.674;2022-12-29T06:20:43;15.20;57.10
33105;DHT22;19476;51.448;6.674;2022-12-29T06:23:08;15.20;57.20
33105;DHT22;19476;51.448;6.674;2022-12-29T06:25:34;15.20;57.30
33105;DHT22;19476;51.448;6.674;2022-12-29T06:28:02;15.00;57.40
33105;DHT22;19476;51.448;6.674;2022-12-29T06:30:28;15.10;57.60
33105;DHT22;19476;51.448;6.674;2022-12-29T06:32:54;15.20;57.60
33105;DHT22;19476;51.448;6.674;2022-12-29T06:35:20;15.20;57.50
33105;DHT22;19476;51.448;6.674;2022-12-29T06:37:48;15.20;57.60
33105;DHT22;19476;51.448;6.674;2022-12-29T06:40:14;15.10;57.50
33105;DHT22;19476;51.448;6.674;2022-12-29T06:42:40;15.20;57.50
33105;DHT22;19476;51.448;6.674;2022-12-29T06:45:06;15.20;57.50
33105;DHT22;19476;51.448;6.674;2022-12-29T06:47:33;15.20;57.50
33105;DHT22;19476;51.448;6.674;2022-12-29T06:50:00;15.10;57.50
33105;DHT22;19476;51.448;6.674;2022-12-29T06:52:26;15.20;57.60
33105;DHT22;19476;51.448;6.674;2022-12-29T06:54:54;15.10;57.50
33105;DHT22;19476;51.448;6.674;2022-12-29T06:57:20;15.20;57.60
33105;DHT22;19476;51.448;6.674;2022-12-29T06:59:46;15.20;57.60
33105;DHT22;19476;51.448;6.674;2022-12-29T07:02:13;15.20;57.50
33105;DHT22;19476;51.448;6.674;2022-12-29T07:04:44;15.20;57.50
33105;DHT22;19476;51.448;6.674;2022-12-29T07:07:10;15.20;57.20
33105;DHT22;19476;51.448;6.674;2022-12-29T07:09:36;15.20;57.10
33105;DHT22;19476;51.448;6.674;2022-12-29T07:12:01;15.20;56.90
33105;DHT22;19476;51.448;6.674;2022-12-29T07:14:28;15.50;57.20
33105;DHT22;19476;51.448;6.674;2022-12-29T07:16:54;15.30;57.10
33105;DHT22;19476;51.448;6.674;2022-12-29T07:19:20;15.30;57.00
33105;DHT22;19476;51.448;6.674;2022-12-29T07:21:46;15.30;57.00
33105;DHT22;19476;51.448;6.674;2022-12-29T07:24:12;15.30;56.90
33105;DHT22;19476;51.448;6.674;2022-12-29T07:26:37;15.20;56.70
33105;DHT22;19476;51.448;6.674;2022-12-29T07:29:04;15.30;56.60
33105;DHT22;19476;51.448;6.674;2022-12-29T07:31:29;15.30;56.60
33105;DHT22;19476;51.448;6.674;2022-12-29T07:33:55;15.30;56.30
33105;DHT22;19476;51.448;6.674;2022-12-29T07:36:21;15.30;56.40
33105;DHT22;19476;51.448;6.674;2022-12-29T07:38:47;15.30;56.30
33105;DHT22;19476;51.448;6.674;2022-12-29T07:41:13;15.30;56.20
33105;DHT22;19476;51.448;6.674;2022-12-29T07:43:39;15.30;55.90
33105;DHT22;19476;51.448;6.674;2022-12-29T07:46:05;15.30;56.00
33105;DHT22;19476;51.448;6.674;2022-12-29T07:48:30;15.30;55.30
33105;DHT22;19476;51.448;6.674;2022-12-29T07:50:59;15.30;55.20
33105;DHT22;19476;51.448;6.674;2022-12-29T07:53:24;15.20;55.20
33105;DHT22;19476;51.448;6.674;2022-12-29T07:55:50;15.30;55.20
33105;DHT22;19476;51.448;6.674;2022-12-29T07:58:16;15.20;54.70
33105;DHT22;19476;51.448;6.674;2022-12-29T08:00:42;15.20;54.80
33105;DHT22;19476;51.448;6.674;2022-12-29T08:03:08;15.20;54.60
33105;DHT22;19476;51.448;6.674;2022-12-29T08:05:34;15.20;54.40
33105;DHT22;19476;51.448;6.674;2022-12-29T08:07:59;15.20;54.40
33105;DHT22;19476;51.448;6.674;2022-12-29T08:10:25;15.20;54.30
33105;DHT22;19476;51.448;6.674;2022-12-29T08:12:51;15.20;54.40
33105;DHT22;19476;51.448;6.674;2022-12-29T08:15:17;15.20;54.40
33105;DHT22;19476;51.448;6.674;2022-12-29T08:17:43;15.20;54.40
33105;DHT22;19476;51.448;6.674;2022-12-29T08:20:09;15.20;54.30
33105;DHT22;19476;51.448;6.674;2022-12-29T08:22:35;15.20;54.40
33105;DHT22;19476;51.448;6.674;2022-12-29T08:25:01;15.20;54.40
33105;DHT22;19476;51.448;6.674;2022-12-29T08:27:27;15.20;54.50
33105;DHT22;19476;51.448;6.674;2022-12-29T08:29:53;15.20;54.50
33105;DHT22;19476;51.448;6.674;2022-12-29T08:32:19;15.20;54.50
33105;DHT22;19476;51.448;6.674;2022-12-29T08:34:45;15.20;54.60
33105;DHT22;19476;51.448;6.674;2022-12-29T08:37:11;15.20;54.60
33105;DHT22;19476;51.448;6.674;2022-12-29T08:39:37;15.20;54.40
33105;DHT22;19476;51.448;6.674;2022-12-29T08:42:02;15.20;54.50
33105;DHT22;19476;51.448;6.674;2022-12-29T08:44:28;15.20;54.60
33105;DHT22;19476;51.448;6.674;2022-12-29T08:46:54;15.20;54.40
33105;DHT22;19476;51.448;6.674;2022-12-29T08:49:20;15.20;54.40
33105;DHT22;19476;51.448;6.674;2022-12-29T08:51:46;15.20;54.40
33105;DHT22;19476;51.448;6.674;2022-12-29T08:54:11;15.20;54.40
33105;DHT22;19476;51.448;6.674;2022-12-29T08:56:38;15.20;54.30
33105;DHT22;19476;51.448;6.674;2022-12-29T08:59:04;15.20;54.90
33105;DHT22;19476;51.448;6.674;2022-12-29T09:01:29;15.10;53.90
33105;DHT22;19476;51.448;6.674;2022-12-29T09:03:56;15.20;53.70
33105;DHT22;19476;51.448;6.674;2022-12-29T09:06:22;15.20;53.60
33105;DHT22;19476;51.448;6.674;2022-12-29T09:08:48;15.20;53.50
33105;DHT22;19476;51.448;6.674;2022-12-29T09:11:21;15.10;53.60
33105;DHT22;19476;51.448;6.674;2022-12-29T09:13:47;15.10;53.70
33105;DHT22;19476;51.448;6.674;2022-12-29T09:16:14;15.10;53.90
33105;DHT22;19476;51.448;6.674;2022-12-29T09:18:41;15.10;54.00
33105;DHT22;19476;51.448;6.674;2022-12-29T09:21:07;15.10;53.90
33105;DHT22;19476;51.448;6.674;2022-12-29T09:23:33;15.10;53.80
33105;DHT22;19476;51.448;6.674;2022-12-29T09:25:59;15.10;53.80
33105;DHT22;19476;51.448;6.674;2022-12-29T09:28:25;15.10;53.70
33105;DHT22;19476;51.448;6.674;2022-12-29T09:30:51;15.10;53.90
33105;DHT22;19476;51.448;6.674;2022-12-29T09:33:18;15.10;53.60
33105;DHT22;19476;51.448;6.674;2022-12-29T09:35:45;15.10;53.70
33105;DHT22;19476;51.448;6.674;2022-12-29T09:38:15;15.00;53.70
33105;DHT22;19476;51.448;6.674;2022-12-29T09:40:53;15.10;53.80
33105;DHT22;19476;51.448;6.674;2022-12-29T09:48:43;15.10;53.60
33105;DHT22;19476;51.448;6.674;2022-12-29T09:51:12;15.10;53.40
33105;DHT22;19476;51.448;6.674;2022-12-29T09:53:51;15.10;53.40
33105;DHT22;19476;51.448;6.674;2022-12-29T09:56:21;15.10;53.00
33105;DHT22;19476;51.448;6.674;2022-12-29T09:58:59;15.10;53.00
33105;DHT22;19476;51.448;6.674;2022-12-29T10:04:06;15.10;52.50
33105;DHT22;19476;51.448;6.674;2022-12-29T10:09:48;15.10;52.30
33105;DHT22;19476;51.448;6.674;2022-12-29T10:12:36;15.30;51.80
33105;DHT22;19476;51.448;6.674;2022-12-29T10:25:38;15.20;51.90
33105;DHT22;19476;51.448;6.674;2022-12-29T10:28:15;15.20;51.80
33105;DHT22;19476;51.448;6.674;2022-12-29T10:30:43;15.20;51.50
33105;DHT22;19476;51.448;6.674;2022-12-29T10:33:17;15.20;51.80
33105;DHT22;19476;51.448;6.674;2022-12-29T10:35:44;15.20;51.70
33105;DHT22;19476;51.448;6.674;2022-12-29T10:41:09;15.20;51.70
33105;DHT22;19476;51.448;6.674;2022-12-29T10:43:43;15.20;51.20
33105;DHT22;19476;51.448;6.674;2022-12-29T10:46:14;15.20;51.60
33105;DHT22;19476;51.448;6.674;2022-12-29T10:48:42;15.20;50.80
33105;DHT22;19476;51.448;6.674;2022-12-29T10:51:15;15.20;51.00
33105;DHT22;19476;51.448;6.674;2022-12-29T10:53:53;15.10;51.00
33105;DHT22;19476;51.448;6.674;2022-12-29T10:56:42;15.10;50.80
33105;DHT22;19476;51.448;6.674;2022-12-29T10:59:16;15.10;50.80
33105;DHT22;19476;51.448;6.674;2022-12-29T11:05:10;15.00;50.90
33105;DHT22;19476;51.448;6.674;2022-12-29T11:07:41;15.10;51.00
33105;DHT22;19476;51.448;6.674;2022-12-29T11:10:29;15.10;51.10
33105;DHT22;19476;51.448;6.674;2022-12-29T11:12:59;15.10;51.00
33105;DHT22;19476;51.448;6.674;2022-12-29T11:15:25;15.00;51.20
33105;DHT22;19476;51.448;6.674;2022-12-29T11:17:57;15.10;51.20
33105;DHT22;19476;51.448;6.674;2022-12-29T11:20:38;15.00;51.20
33105;DHT22;19476;51.448;6.674;2022-12-29T11:23:20;15.00;50.90
33105;DHT22;19476;51.448;6.674;2022-12-29T11:28:34;15.10;51.30
33105;DHT22;19476;51.448;6.674;2022-12-29T11:31:02;15.10;51.30
33105;DHT22;19476;51.448;6.674;2022-12-29T11:33:29;15.10;51.30
33105;DHT22;19476;51.448;6.674;2022-12-29T11:36:08;15.10;51.00
33105;DHT22;19476;51.448;6.674;2022-12-29T11:38:39;15.10;50.50
33105;DHT22;19476;51.448;6.674;2022-12-29T11:41:05;15.10;50.50
33105;DHT22;19476;51.448;6.674;2022-12-29T11:43:38;15.10;50.20
33105;DHT22;19476;51.448;6.674;2022-12-29T11:46:06;15.10;50.20
33105;DHT22;19476;51.448;6.674;2022-12-29T11:48:39;15.10;50.50
33105;DHT22;19476;51.448;6.674;2022-12-29T11:51:06;15.00;50.50
33105;DHT22;19476;51.448;6.674;2022-12-29T11:53:37;15.10;50.70
33105;DHT22;19476;51.448;6.674;2022-12-29T11:56:40;15.10;50.60
33105;DHT22;19476;51.448;6.674;2022-12-29T12:01:56;15.10;50.50
33105;DHT22;19476;51.448;6.674;2022-12-29T12:04:28;15.10;50.60
33105;DHT22;19476;51.448;6.674;2022-12-29T12:07:02;15.20;50.70
33105;DHT22;19476;51.448;6.674;2022-12-29T12:09:33;15.30;50.60
33105;DHT22;19476;51.448;6.674;2022-12-29T12:12:01;15.30;50.40
33105;DHT22;19476;51.448;6.674;2022-12-29T12:14:45;15.30;50.50
33105;DHT22;19476;51.448;6.674;2022-12-29T12:17:13;15.30;50.10
33105;DHT22;19476;51.448;6.674;2022-12-29T12:19:45;15.30;50.40
33105;DHT22;19476;51.448;6.674;2022-12-29T12:22:34;15.30;50.10
33105;DHT22;19476;51.448;6.674;2022-12-29T12:25:17;15.30;49.90
33105;DHT22;19476;51.448;6.674;2022-12-29T12:27:51;15.30;50.00
33105;DHT22;19476;51.448;6.674;2022-12-29T12:30:21;15.20;50.20
33105;DHT22;19476;51.448;6.674;2022-12-29T12:42:01;15.20;50.50
33105;DHT22;19476;51.448;6.674;2022-12-29T12:44:18;15.20;50.70
33105;DHT22;19476;51.448;6.674;2022-12-29T12:55:24;15.00;50.10
33105;DHT22;19476;51.448;6.674;2022-12-29T12:58:06;15.10;50.40
33105;DHT22;19476;51.448;6.674;2022-12-29T13:06:18;15.10;50.50
33105;DHT22;19476;51.448;6.674;2022-12-29T13:15:16;15.00;50.70
33105;DHT22;19476;51.448;6.674;2022-12-29T13:20:51;15.00;50.70
33105;DHT22;19476;51.448;6.674;2022-12-29T13:37:09;15.10;51.00
33105;DHT22;19476;51.448;6.674;2022-12-29T13:39:52;15.10;50.90
33105;DHT22;19476;51.448;6.674;2022-12-29T13:42:21;15.10;50.90
33105;DHT22;19476;51.448;6.674;2022-12-29T13:44:59;15.10;51.00
33105;DHT22;19476;51.448;6.674;2022-12-29T13:47:42;15.10;51.00
33105;DHT22;19476;51.448;6.674;2022-12-29T13:50:17;15.10;50.90
33105;DHT22;19476;51.448;6.674;2022-12-29T13:55:36;15.10;51.30
33105;DHT22;19476;51.448;6.674;2022-12-29T14:01:28;15.10;51.70
33105;DHT22;19476;51.448;6.674;2022-12-29T14:04:00;15.10;51.60
33105;DHT22;19476;51.448;6.674;2022-12-29T14:06:31;15.10;51.80
33105;DHT22;19476;51.448;6.674;2022-12-29T14:11:36;15.10;52.00
33105;DHT22;19476;51.448;6.674;2022-12-29T14:16:48;15.00;52.00
33105;DHT22;19476;51.448;6.674;2022-12-29T14:19:26;15.00;52.00
33105;DHT22;19476;51.448;6.674;2022-12-29T14:22:02;15.30;51.90
33105;DHT22;19476;51.448;6.674;2022-12-29T14:34:50;15.00;51.50
33105;DHT22;19476;51.448;6.674;2022-12-29T14:37:36;15.00;51.80
33105;DHT22;19476;51.448;6.674;2022-12-29T14:40:18;15.00;51.40
33105;DHT22;19476;51.448;6.674;2022-12-29T14:42:48;15.00;51.50
33105;DHT22;19476;51.448;6.674;2022-12-29T14:47:41;15.00;51.30
33105;DHT22;19476;51.448;6.674;2022-12-29T14:50:14;15.00;51.30
33105;DHT22;19476;51.448;6.674;2022-12-29T14:52:53;15.00;51.30
33105;DHT22;19476;51.448;6.674;2022-12-29T15:00:50;15.00;51.30
33105;DHT22;19476;51.448;6.674;2022-12-29T15:06:08;15.00;50.90
33105;DHT22;19476;51.448;6.674;2022-12-29T15:11:53;14.80;51.00
33105;DHT22;19476;51.448;6.674;2022-12-29T15:14:38;14.90;50.60
33105;DHT22;19476;51.448;6.674;2022-12-29T15:17:33;14.90;50.70
33105;DHT22;19476;51.448;6.674;2022-12-29T15:20:23;14.90;50.90
33105;DHT22;19476;51.448;6.674;2022-12-29T15:23:10;14.70;50.90
33105;DHT22;19476;51.448;6.674;2022-12-29T15:25:52;14.90;51.30
33105;DHT22;19476;51.448;6.674;2022-12-29T15:28:20;14.90;51.50
33105;DHT22;19476;51.448;6.674;2022-12-29T15:30:52;14.80;51.50
33105;DHT22;19476;51.448;6.674;2022-12-29T15:33:20;14.80;51.90
33105;DHT22;19476;51.448;6.674;2022-12-29T15:35:50;14.80;51.90
33105;DHT22;19476;51.448;6.674;2022-12-29T15:38:25;14.80;51.90
33105;DHT22;19476;51.448;6.674;2022-12-29T15:40:54;14.70;51.90
33105;DHT22;19476;51.448;6.674;2022-12-29T15:43:34;14.70;51.90
33105;DHT22;19476;51.448;6.674;2022-12-29T15:46:02;14.70;51.70
33105;DHT22;19476;51.448;6.674;2022-12-29T15:48:30;14.70;51.60
33105;DHT22;19476;51.448;6.674;2022-12-29T15:50:56;14.70;51.50
33105;DHT22;19476;51.448;6.674;2022-12-29T15:53:27;14.70;51.50
33105;DHT22;19476;51.448;6.674;2022-12-29T15:55:59;14.70;51.60
33105;DHT22;19476;51.448;6.674;2022-12-29T15:58:28;14.70;51.40
33105;DHT22;19476;51.448;6.674;2022-12-29T16:00:59;14.60;51.20
33105;DHT22;19476;51.448;6.674;2022-12-29T16:03:27;14.30;50.70
33105;DHT22;19476;51.448;6.674;2022-12-29T16:08:37;14.60;51.10
33105;DHT22;19476;51.448;6.674;2022-12-29T16:13:43;14.50;51.10
33105;DHT22;19476;51.448;6.674;2022-12-29T16:16:29;14.50;51.00
33105;DHT22;19476;51.448;6.674;2022-12-29T16:18:58;14.50;51.10
33105;DHT22;19476;51.448;6.674;2022-12-29T16:21:33;14.50;51.20
33105;DHT22;19476;51.448;6.674;2022-12-29T16:24:04;14.30;51.20
33105;DHT22;19476;51.448;6.674;2022-12-29T16:26:32;14.40;51.50
33105;DHT22;19476;51.448;6.674;2022-12-29T16:29:04;14.40;51.70
33105;DHT22;19476;51.448;6.674;2022-12-29T16:31:35;14.40;52.00
33105;DHT22;19476;51.448;6.674;2022-12-29T16:36:57;14.40;52.70
33105;DHT22;19476;51.448;6.674;2022-12-29T16:41:55;14.40;52.70
33105;DHT22;19476;51.448;6.674;2022-12-29T16:44:26;14.40;52.60
33105;DHT22;19476;51.448;6.674;2022-12-29T16:49:34;14.30;52.70
33105;DHT22;19476;51.448;6.674;2022-12-29T16:52:00;14.20;52.90
33105;DHT22;19476;51.448;6.674;2022-12-29T16:54:33;14.10;53.00
33105;DHT22;19476;51.448;6.674;2022-12-29T16:57:00;13.90;53.80
33105;DHT22;19476;51.448;6.674;2022-12-29T16:59:35;13.80;54.20
33105;DHT22;19476;51.448;6.674;2022-12-29T17:02:15;13.70;55.50
33105;DHT22;19476;51.448;6.674;2022-12-29T17:04:41;13.50;55.70
33105;DHT22;19476;51.448;6.674;2022-12-29T17:07:19;13.40;56.20
33105;DHT22;19476;51.448;6.674;2022-12-29T17:09:45;13.20;57.50
33105;DHT22;19476;51.448;6.674;2022-12-29T17:12:19;13.00;57.30
33105;DHT22;19476;51.448;6.674;2022-12-29T17:14:50;12.90;58.10
33105;DHT22;19476;51.448;6.674;2022-12-29T17:17:31;12.80;58.00
33105;DHT22;19476;51.448;6.674;2022-12-29T17:20:00;12.70;58.90
33105;DHT22;19476;51.448;6.674;2022-12-29T17:22:29;12.70;58.80
33105;DHT22;19476;51.448;6.674;2022-12-29T17:24:57;12.60;58.50
33105;DHT22;19476;51.448;6.674;2022-12-29T17:27:36;12.50;58.50
33105;DHT22;19476;51.448;6.674;2022-12-29T17:30:16;12.50;58.60
33105;DHT22;19476;51.448;6.674;2022-12-29T17:32:45;12.50;58.50
33105;DHT22;19476;51.448;6.674;2022-12-29T17:35:17;12.40;58.40
33105;DHT22;19476;51.448;6.674;2022-12-29T17:37:44;12.40;58.70
33105;DHT22;19476;51.448;6.674;2022-12-29T17:40:16;12.40;58.70
33105;DHT22;19476;51.448;6.674;2022-12-29T17:42:47;12.40;59.10
33105;DHT22;19476;51.448;6.674;2022-12-29T17:45:33;12.40;59.40
33105;DHT22;19476;51.448;6.674;2022-12-29T17:47:59;12.30;59.70
33105;DHT22;19476;51.448;6.674;2022-12-29T17:50:27;12.30;59.10
33105;DHT22;19476;51.448;6.674;2022-12-29T17:53:01;12.30;59.40
33105;DHT22;19476;51.448;6.674;2022-12-29T17:55:28;12.30;59.70
33105;DHT22;19476;51.448;6.674;2022-12-29T17:57:54;12.30;59.50
33105;DHT22;19476;51.448;6.674;2022-12-29T18:00:25;12.30;59.50
33105;DHT22;19476;51.448;6.674;2022-12-29T18:02:56;12.30;59.90
33105;DHT22;19476;51.448;6.674;2022-12-29T18:05:27;12.30;59.60
33105;DHT22;19476;51.448;6.674;2022-12-29T18:07:55;12.30;59.80
33105;DHT22;19476;51.448;6.674;2022-12-29T18:10:22;12.30;59.70
33105;DHT22;19476;51.448;6.674;2022-12-29T18:12:51;12.30;59.70
33105;DHT22;19476;51.448;6.674;2022-12-29T18:15:23;12.30;59.70
33105;DHT22;19476;51.448;6.674;2022-12-29T18:17:57;12.30;59.90
33105;DHT22;19476;51.448;6.674;2022-12-29T18:20:24;12.30;59.90
33105;DHT22;19476;51.448;6.674;2022-12-29T18:22:50;12.30;59.60
33105;DHT22;19476;51.448;6.674;2022-12-29T18:25:29;12.30;59.60
33105;DHT22;19476;51.448;6.674;2022-12-29T18:27:58;12.30;60.00
33105;DHT22;19476;51.448;6.674;2022-12-29T18:30:24;12.30;59.70
33105;DHT22;19476;51.448;6.674;2022-12-29T18:32:49;12.30;59.70
33105;DHT22;19476;51.448;6.674;2022-12-29T18:35:25;12.30;59.70